Time;durP1;ratioP1;P1;durP2;ratioP2;P2;SDS_P1;SDS_P2;PMS_P1;PMS_P2;Temp;Humidity;BMP_temperature;BMP_pressure;BME280_temperature;BME280_humidity;BME280_pressure;Samples;Min_cycle;Max_cycle;Signal;HPM_P1;HPM_P2
2021/11/23 00:00:06;;;;;;;34.85;28.83;;;;;;;;;;10287475;28;20079;-66
2021/11/23 00:05:12;;;;;;;38.63;27.77;;;;;;;;;;10283362;28;20064;-65
2021/11/23 00:10:11;;;;;;;67.93;43.85;;;;;;;;;;10296088;28;20075;-66
2021/11/23 00:15:10;;;;;;;33.65;26.67;;;;;;;;;;10273981;28;20087;-64
2021/11/23 00:20:09;;;;;;;37.10;26.48;;;;;;;;;;10273851;28;20055;-64
2021/11/23 00:25:09;;;;;;;43.05;30.75;;;;;;;;;;10273515;28;20087;-64
2021/11/23 00:30:08;;;;;;;41.35;30.27;;;;;;;;;;10284648;28;20057;-65
2021/11/23 00:35:06;;;;;;;38.33;27.30;;;;;;;;;;10283961;28;20080;-65
2021/11/23 00:40:05;;;;;;;37.60;26.33;;;;;;;;;;10283612;28;20120;-65
2021/11/23 00:45:05;;;;;;;43.78;28.48;;;;;;;;;;10285512;28;20107;-65
2021/11/23 00:50:04;;;;;;;39.55;30.45;;;;;;;;;;10291683;28;20520;-65
2021/11/23 00:55:03;;;;;;;43.70;31.20;;;;;;;;;;10290320;28;20064;-66
2021/11/23 01:00:01;;;;;;;39.97;30.33;;;;;;;;;;10280662;28;20139;-64
2021/11/23 01:05:01;;;;;;;40.70;30.60;;;;;;;;;;10280095;28;20049;-65
2021/11/23 01:09:59;;;;;;;47.25;31.10;;;;;;;;;;10294631;28;20080;-64
2021/11/23 01:14:57;;;;;;;44.80;31.67;;;;;;;;;;10280012;28;20080;-64
2021/11/23 01:19:56;;;;;;;45.00;30.17;;;;;;;;;;10279724;28;20048;-64
2021/11/23 01:24:55;;;;;;;45.22;30.90;;;;;;;;;;10289331;28;20300;-64
2021/11/23 01:29:54;;;;;;;40.95;28.25;;;;;;;;;;10290662;28;20372;-64
2021/11/23 01:34:52;;;;;;;45.33;29.88;;;;;;;;;;10290131;28;20049;-64
2021/11/23 01:39:50;;;;;;;38.17;29.25;;;;;;;;;;10290223;28;20509;-64
2021/11/23 01:44:50;;;;;;;43.70;33.88;;;;;;;;;;10294394;28;20072;-64
2021/11/23 01:49:48;;;;;;;105.63;58.70;;;;;;;;;;10289556;28;20132;-64
2021/11/23 01:54:47;;;;;;;37.88;28.98;;;;;;;;;;10278459;28;20477;-65
2021/11/23 01:59:45;;;;;;;39.05;28.42;;;;;;;;;;10277731;28;20481;-65
2021/11/23 02:04:45;;;;;;;41.28;27.23;;;;;;;;;;10290268;28;20056;-65
2021/11/23 02:09:43;;;;;;;40.45;27.13;;;;;;;;;;10298534;28;20068;-64
2021/11/23 02:14:42;;;;;;;33.15;26.23;;;;;;;;;;10293425;28;20067;-64
2021/11/23 02:19:45;;;;;;;33.85;27.38;;;;;;;;;;10286485;28;20087;-65
2021/11/23 02:24:46;;;;;;;43.67;27.35;;;;;;;;;;10288711;28;20080;-64
2021/11/23 02:29:45;;;;;;;37.22;27.27;;;;;;;;;;10276550;28;20079;-64
2021/11/23 02:34:44;;;;;;;40.75;27.83;;;;;;;;;;10275935;28;20083;-63
2021/11/23 02:39:43;;;;;;;35.15;27.02;;;;;;;;;;10288507;28;20068;-66
2021/11/23 02:44:42;;;;;;;39.38;27.83;;;;;;;;;;10288685;28;20087;-65
2021/11/23 02:49:40;;;;;;;39.78;29.42;;;;;;;;;;10290672;28;20080;-65
2021/11/23 02:54:53;;;;;;;41.25;29.50;;;;;;;;;;10292284;28;20071;-65
2021/11/23 02:59:51;;;;;;;36.95;27.90;;;;;;;;;;10303408;28;20088;-66
2021/11/23 03:04:50;;;;;;;42.22;29.15;;;;;;;;;;10292274;28;20068;-66
2021/11/23 03:09:52;;;;;;;35.67;28.92;;;;;;;;;;10295562;28;20543;-66
2021/11/23 03:14:50;;;;;;;37.65;28.35;;;;;;;;;;10290104;28;20106;-65
2021/11/23 03:19:50;;;;;;;36.22;29.35;;;;;;;;;;10282898;28;20072;-65
2021/11/23 03:24:48;;;;;;;39.45;29.10;;;;;;;;;;10284957;28;20095;-66
2021/11/23 03:29:48;;;;;;;38.95;28.00;;;;;;;;;;10285752;28;20076;-66
2021/11/23 03:34:47;;;;;;;37.55;27.40;;;;;;;;;;10276780;28;20076;-65
2021/11/23 03:39:46;;;;;;;38.47;30.67;;;;;;;;;;10285449;28;20079;-66
2021/11/23 03:44:45;;;;;;;51.45;33.67;;;;;;;;;;10284598;28;20100;-66
2021/11/23 03:49:46;;;;;;;43.65;32.85;;;;;;;;;;10274167;28;20065;-66
2021/11/23 03:54:45;;;;;;;39.75;30.45;;;;;;;;;;10274087;28;20068;-66
2021/11/23 03:59:47;;;;;;;38.97;30.50;;;;;;;;;;10285010;28;20071;-66
2021/11/23 04:04:46;;;;;;;41.08;31.77;;;;;;;;;;10274276;28;20521;-66
2021/11/23 04:09:45;;;;;;;46.65;36.08;;;;;;;;;;10287977;28;20066;-65
2021/11/23 04:14:44;;;;;;;44.88;32.13;;;;;;;;;;10274437;28;20079;-66
2021/11/23 04:19:42;;;;;;;45.63;32.42;;;;;;;;;;10276036;28;20462;-65
2021/11/23 04:24:42;;;;;;;44.58;32.78;;;;;;;;;;10291625;28;20537;-64
2021/11/23 04:29:40;;;;;;;43.70;33.25;;;;;;;;;;10292650;28;20076;-64
2021/11/23 04:34:39;;;;;;;54.38;35.70;;;;;;;;;;10286609;28;20072;-64
2021/11/23 04:39:37;;;;;;;134.35;56.63;;;;;;;;;;10295786;28;20064;-65
2021/11/23 04:44:37;;;;;;;99.50;48.08;;;;;;;;;;10283899;28;20065;-65
2021/11/23 04:49:35;;;;;;;79.13;38.97;;;;;;;;;;10280716;28;20037;-64
2021/11/23 04:54:33;;;;;;;64.60;37.40;;;;;;;;;;10317968;28;20087;-64
2021/11/23 04:59:32;;;;;;;47.95;34.95;;;;;;;;;;10310426;28;20084;-64
2021/11/23 05:04:31;;;;;;;50.70;36.15;;;;;;;;;;10280421;28;20489;-64
2021/11/23 05:09:30;;;;;;;52.60;39.63;;;;;;;;;;10298364;28;20493;-65
2021/11/23 05:14:28;;;;;;;52.72;37.00;;;;;;;;;;10283210;28;20072;-65
2021/11/23 05:19:26;;;;;;;43.53;33.67;;;;;;;;;;10279525;28;20075;-64
2021/11/23 05:24:26;;;;;;;44.53;33.47;;;;;;;;;;10290318;28;20540;-64
2021/11/23 05:29:25;;;;;;;44.45;35.97;;;;;;;;;;10286737;28;20513;-64
2021/11/23 05:34:23;;;;;;;50.15;37.17;;;;;;;;;;10287508;28;20068;-64
2021/11/23 05:39:21;;;;;;;54.53;41.80;;;;;;;;;;10283392;28;20593;-64
2021/11/23 05:44:21;;;;;;;58.50;43.45;;;;;;;;;;10262778;28;20526;-64
2021/11/23 05:49:19;;;;;;;46.67;35.25;;;;;;;;;;10281581;28;20434;-67
2021/11/23 05:54:17;;;;;;;55.72;40.25;;;;;;;;;;10282347;28;20065;-66
2021/11/23 05:59:17;;;;;;;46.03;37.67;;;;;;;;;;10287238;28;20075;-66
2021/11/23 06:04:17;;;;;;;56.15;39.78;;;;;;;;;;10276328;28;20526;-66
2021/11/23 06:09:15;;;;;;;50.47;37.70;;;;;;;;;;10273801;28;20438;-67
2021/11/23 06:14:13;;;;;;;69.40;43.90;;;;;;;;;;10276036;28;20227;-65
2021/11/23 06:19:12;;;;;;;53.95;38.00;;;;;;;;;;10290274;28;20467;-66
2021/11/23 06:24:12;;;;;;;52.63;39.92;;;;;;;;;;10287076;28;20450;-65
2021/11/23 06:29:10;;;;;;;79.80;51.05;;;;;;;;;;10289433;28;20057;-66
2021/11/23 06:34:09;;;;;;;60.22;41.95;;;;;;;;;;10275359;28;20103;-66
2021/11/23 06:39:08;;;;;;;54.45;40.40;;;;;;;;;;10276182;28;20080;-66
2021/11/23 06:44:08;;;;;;;64.95;43.47;;;;;;;;;;10288370;28;20511;-66
2021/11/23 06:49:06;;;;;;;63.75;43.42;;;;;;;;;;10288475;28;20504;-66
2021/11/23 06:54:05;;;;;;;65.22;41.80;;;;;;;;;;10274524;28;20064;-66
2021/11/23 06:59:03;;;;;;;55.30;38.90;;;;;;;;;;10273931;28;20088;-66
2021/11/23 07:04:03;;;;;;;56.28;37.30;;;;;;;;;;10273714;28;20437;-66
2021/11/23 07:09:01;;;;;;;51.30;40.38;;;;;;;;;;10284846;28;20485;-67
2021/11/23 07:14:00;;;;;;;92.00;64.97;;;;;;;;;;10278065;28;20080;-65
2021/11/23 07:18:59;;;;;;;59.45;43.08;;;;;;;;;;10281994;28;20076;-65
2021/11/23 07:23:59;;;;;;;66.15;45.60;;;;;;;;;;10278038;28;20080;-65
2021/11/23 07:28:58;;;;;;;64.72;49.03;;;;;;;;;;10286874;28;20250;-66
2021/11/23 07:33:56;;;;;;;91.75;75.63;;;;;;;;;;10285956;28;20084;-66
2021/11/23 07:38:56;;;;;;;54.58;41.97;;;;;;;;;;10280500;28;20075;-66
2021/11/23 07:43:56;;;;;;;55.00;43.38;;;;;;;;;;10281276;28;20087;-67
2021/11/23 07:48:55;;;;;;;127.20;99.32;;;;;;;;;;10283899;28;20088;-67
2021/11/23 07:53:53;;;;;;;75.13;57.28;;;;;;;;;;10271509;28;20072;-68
2021/11/23 07:58:51;;;;;;;72.18;50.22;;;;;;;;;;10272636;28;20474;-66
2021/11/23 08:03:51;;;;;;;69.97;48.50;;;;;;;;;;10272574;28;20052;-66
2021/11/23 08:08:49;;;;;;;64.00;47.05;;;;;;;;;;10272130;28;20459;-66
2021/11/23 08:13:48;;;;;;;67.15;47.13;;;;;;;;;;10272140;28;20080;-65
2021/11/23 08:18:46;;;;;;;82.15;45.95;;;;;;;;;;10285661;28;20068;-65
2021/11/23 08:23:46;;;;;;;69.80;44.13;;;;;;;;;;10272209;28;20091;-66
2021/11/23 08:28:46;;;;;;;60.55;44.47;;;;;;;;;;10279467;28;20091;-66
2021/11/23 08:33:44;;;;;;;70.15;43.25;;;;;;;;;;10282890;28;20049;-66
2021/11/23 08:38:42;;;;;;;74.32;48.97;;;;;;;;;;10272106;28;20077;-66
2021/11/23 08:43:42;;;;;;;60.17;44.70;;;;;;;;;;10271325;28;20582;-66
2021/11/23 08:48:40;;;;;;;76.10;56.60;;;;;;;;;;10282211;28;20079;-66
2021/11/23 08:53:39;;;;;;;52.42;39.25;;;;;;;;;;10282298;28;20041;-66
2021/11/23 08:58:38;;;;;;;59.45;43.28;;;;;;;;;;10282664;28;20083;-66
2021/11/23 09:03:39;;;;;;;67.10;48.95;;;;;;;;;;10274319;28;20497;-66
2021/11/23 09:08:41;;;;;;;59.92;45.50;;;;;;;;;;10285754;28;20068;-67
2021/11/23 09:13:40;;;;;;;55.90;44.28;;;;;;;;;;10282661;28;20083;-66
2021/11/23 09:18:39;;;;;;;57.08;47.10;;;;;;;;;;10292138;28;20088;-65
2021/11/23 09:23:38;;;;;;;58.90;43.25;;;;;;;;;;10283870;28;20510;-66
2021/11/23 09:28:36;;;;;;;57.83;42.40;;;;;;;;;;10295545;28;20518;-66
2021/11/23 09:33:34;;;;;;;63.05;45.80;;;;;;;;;;10289976;28;20091;-66
2021/11/23 09:38:36;;;;;;;78.00;56.95;;;;;;;;;;10277591;28;20096;-67
2021/11/23 09:43:34;;;;;;;66.80;49.42;;;;;;;;;;10287167;28;20072;-66
2021/11/23 09:48:33;;;;;;;67.28;48.67;;;;;;;;;;10288232;28;20433;-65
2021/11/23 09:53:31;;;;;;;68.82;49.28;;;;;;;;;;10288040;28;20084;-66
2021/11/23 09:58:31;;;;;;;85.32;60.72;;;;;;;;;;10277193;28;20045;-66
2021/11/23 10:03:30;;;;;;;71.45;54.33;;;;;;;;;;10276668;28;20049;-66
2021/11/23 10:08:29;;;;;;;64.28;48.40;;;;;;;;;;10280189;28;20290;-66
2021/11/23 10:13:41;;;;;;;68.35;51.63;;;;;;;;;;10276169;28;20069;-65
2021/11/23 10:18:40;;;;;;;65.47;46.13;;;;;;;;;;10289538;28;20065;-66
2021/11/23 10:23:39;;;;;;;64.32;45.88;;;;;;;;;;10281603;28;20076;-66
2021/11/23 10:28:37;;;;;;;63.03;47.45;;;;;;;;;;10293809;28;20075;-65
2021/11/23 10:33:38;;;;;;;81.60;53.80;;;;;;;;;;10287926;28;20085;-65
2021/11/23 10:38:37;;;;;;;72.60;50.83;;;;;;;;;;10275773;28;20076;-65
2021/11/23 10:43:38;;;;;;;69.82;48.83;;;;;;;;;;10285700;28;20068;-65
2021/11/23 10:48:37;;;;;;;84.43;67.85;;;;;;;;;;10274807;28;20064;-66
2021/11/23 10:53:36;;;;;;;60.72;44.08;;;;;;;;;;10274932;28;20476;-66
2021/11/23 10:58:35;;;;;;;68.43;54.05;;;;;;;;;;10274438;28;20064;-66
2021/11/23 11:03:33;;;;;;;67.32;48.78;;;;;;;;;;10274734;28;20076;-66
2021/11/23 11:08:36;;;;;;;88.15;60.53;;;;;;;;;;10277861;28;20063;-66
2021/11/23 11:13:35;;;;;;;64.15;47.60;;;;;;;;;;10283292;28;20063;-66
2021/11/23 11:18:33;;;;;;;59.88;43.97;;;;;;;;;;10287620;28;20063;-66
2021/11/23 11:23:32;;;;;;;52.00;39.03;;;;;;;;;;10273154;28;20088;-66
2021/11/23 11:28:47;;;;;;;45.75;34.67;;;;;;;;;;10273009;28;20474;-66
2021/11/23 11:33:45;;;;;;;50.92;35.70;;;;;;;;;;10272992;28;20079;-66
2021/11/23 11:38:43;;;;;;;52.75;39.28;;;;;;;;;;10272896;28;20068;-66
2021/11/23 11:43:43;;;;;;;51.22;37.35;;;;;;;;;;10275294;28;20068;-66
2021/11/23 11:48:46;;;;;;;58.38;41.92;;;;;;;;;;10284065;28;20076;-66
2021/11/23 11:53:46;;;;;;;50.35;37.13;;;;;;;;;;10272602;28;20125;-66
2021/11/23 11:58:46;;;;;;;52.42;39.10;;;;;;;;;;10272332;28;20079;-66
2021/11/23 12:03:45;;;;;;;48.10;35.92;;;;;;;;;;10271893;28;20072;-68
2021/11/23 12:08:44;;;;;;;50.20;38.08;;;;;;;;;;10279095;28;20084;-66
2021/11/23 12:13:47;;;;;;;53.33;38.17;;;;;;;;;;10276138;28;20064;-66
2021/11/23 12:19:10;;;;;;;45.28;33.33;;;;;;;;;;10285878;28;20124;-65
2021/11/23 12:24:11;;;;;;;41.25;31.00;;;;;;;;;;10282123;28;20072;-66
2021/11/23 12:29:12;;;;;;;51.10;36.50;;;;;;;;;;10278984;28;20049;-66
2021/11/23 12:34:10;;;;;;;42.65;32.78;;;;;;;;;;10271437;28;20073;-66
2021/11/23 12:39:12;;;;;;;46.72;33.72;;;;;;;;;;10282594;28;20065;-66
2021/11/23 12:44:18;;;;;;;47.17;34.72;;;;;;;;;;10290759;28;20072;-66
2021/11/23 12:49:17;;;;;;;46.50;37.22;;;;;;;;;;10290454;28;20114;-66
2021/11/23 12:54:16;;;;;;;43.40;34.72;;;;;;;;;;10290193;28;20084;-67
2021/11/23 12:59:31;;;;;;;45.33;33.75;;;;;;;;;;10290149;28;20111;-66
2021/11/23 13:04:40;;;;;;;41.78;33.00;;;;;;;;;;10279011;28;20494;-66
2021/11/23 13:09:46;;;;;;;44.50;35.33;;;;;;;;;;10278611;28;20457;-66
2021/11/23 13:14:55;;;;;;;36.70;29.95;;;;;;;;;;10278336;28;20088;-66
2021/11/23 13:19:54;;;;;;;36.70;31.20;;;;;;;;;;10279063;28;20088;-66
2021/11/23 13:24:53;;;;;;;40.45;32.45;;;;;;;;;;10294282;28;20422;-65
2021/11/23 13:29:54;;;;;;;41.30;31.92;;;;;;;;;;10279180;28;20052;-66
2021/11/23 13:35:05;;;;;;;41.83;30.38;;;;;;;;;;10277793;28;20552;-66
2021/11/23 13:40:18;;;;;;;37.50;29.52;;;;;;;;;;10288235;28;20081;-65
2021/11/23 13:45:20;;;;;;;32.50;25.25;;;;;;;;;;10277543;28;20075;-66
2021/11/23 13:50:19;;;;;;;25.15;19.45;;;;;;;;;;10277865;28;20462;-66
2021/11/23 13:55:25;;;;;;;24.08;16.50;;;;;;;;;;10277510;28;20483;-66
2021/11/23 14:00:24;;;;;;;30.88;22.42;;;;;;;;;;10277347;28;20083;-66
2021/11/23 14:05:39;;;;;;;26.55;20.70;;;;;;;;;;10277101;28;20087;-65
2021/11/23 14:10:40;;;;;;;20.67;16.25;;;;;;;;;;10276919;28;20084;-65
2021/11/23 14:15:39;;;;;;;16.67;13.38;;;;;;;;;;10276858;28;20067;-65
2021/11/23 14:20:51;;;;;;;24.95;14.27;;;;;;;;;;10290636;28;20076;-65
2021/11/23 14:26:00;;;;;;;71.40;47.60;;;;;;;;;;10294074;28;20069;-66
2021/11/23 14:30:59;;;;;;;25.00;18.70;;;;;;;;;;10295476;28;20122;-66
2021/11/23 14:35:58;;;;;;;17.88;14.15;;;;;;;;;;10276016;28;20091;-66
2021/11/23 14:40:58;;;;;;;15.35;11.38;;;;;;;;;;10275381;28;20072;-66
2021/11/23 14:45:58;;;;;;;24.70;19.25;;;;;;;;;;10286993;28;20044;-66
2021/11/23 14:50:56;;;;;;;35.17;26.05;;;;;;;;;;10286566;28;20060;-66
2021/11/23 14:55:55;;;;;;;17.60;14.43;;;;;;;;;;10286034;28;20406;-66
2021/11/23 15:00:53;;;;;;;16.10;12.80;;;;;;;;;;10285674;28;20076;-66
2021/11/23 15:05:53;;;;;;;15.25;11.25;;;;;;;;;;10274097;28;20087;-67
2021/11/23 15:10:51;;;;;;;16.40;10.05;;;;;;;;;;10274425;28;20075;-66
2021/11/23 15:15:49;;;;;;;8.68;7.13;;;;;;;;;;10285501;28;20064;-66
2021/11/23 15:20:48;;;;;;;14.63;10.45;;;;;;;;;;10287996;28;20510;-66
2021/11/23 15:25:49;;;;;;;10.32;9.00;;;;;;;;;;10273902;28;20120;-66
2021/11/23 15:30:53;;;;;;;25.73;17.23;;;;;;;;;;10273767;28;20069;-66
2021/11/23 15:36:03;;;;;;;36.58;28.17;;;;;;;;;;10278679;28;20076;-68
2021/11/23 15:41:03;;;;;;;24.55;15.40;;;;;;;;;;10284472;28;20089;-65
2021/11/23 15:46:02;;;;;;;20.17;15.05;;;;;;;;;;10273333;28;20068;-65
2021/11/23 15:51:01;;;;;;;20.05;13.52;;;;;;;;;;10273023;28;20064;-65
2021/11/23 15:55:59;;;;;;;13.35;10.30;;;;;;;;;;10284093;28;20072;-65
2021/11/23 16:01:00;;;;;;;15.85;9.00;;;;;;;;;;10284005;28;20068;-65
2021/11/23 16:05:59;;;;;;;11.43;9.32;;;;;;;;;;10281272;28;20077;-65
2021/11/23 16:10:57;;;;;;;15.52;10.95;;;;;;;;;;10272852;28;20073;-65
2021/11/23 16:15:56;;;;;;;12.32;9.07;;;;;;;;;;10271778;28;20061;-65
2021/11/23 16:20:56;;;;;;;13.88;11.52;;;;;;;;;;10294087;28;20073;-65
2021/11/23 16:25:54;;;;;;;12.65;10.45;;;;;;;;;;10290095;28;20068;-65
2021/11/23 16:30:53;;;;;;;16.33;10.40;;;;;;;;;;10291698;28;20080;-66
2021/11/23 16:35:51;;;;;;;22.55;15.40;;;;;;;;;;10292651;28;20072;-64
2021/11/23 16:40:52;;;;;;;78.63;57.28;;;;;;;;;;10281494;28;20454;-65
2021/11/23 16:45:51;;;;;;;16.13;11.88;;;;;;;;;;10282952;28;20045;-65
2021/11/23 16:50:49;;;;;;;22.38;15.07;;;;;;;;;;10284327;28;20089;-65
2021/11/23 16:55:48;;;;;;;18.73;13.50;;;;;;;;;;10286207;28;20461;-65
2021/11/23 17:00:47;;;;;;;13.32;9.63;;;;;;;;;;10271784;28;20072;-65
2021/11/23 17:05:46;;;;;;;28.02;16.73;;;;;;;;;;10270998;28;20090;-65
2021/11/23 17:10:44;;;;;;;22.02;14.43;;;;;;;;;;10271535;28;20068;-65
2021/11/23 17:15:43;;;;;;;27.30;18.20;;;;;;;;;;10271219;28;20065;-65
2021/11/23 17:20:43;;;;;;;28.35;18.38;;;;;;;;;;10285586;28;20061;-66
2021/11/23 17:25:43;;;;;;;24.02;16.90;;;;;;;;;;10271794;28;20076;-66
2021/11/23 17:30:41;;;;;;;17.52;13.43;;;;;;;;;;10297547;28;20072;-65
2021/11/23 17:35:40;;;;;;;16.95;11.15;;;;;;;;;;10284460;28;20072;-66
2021/11/23 17:40:39;;;;;;;17.63;13.63;;;;;;;;;;10278028;28;20075;-66
2021/11/23 17:45:40;;;;;;;26.23;19.05;;;;;;;;;;10277983;28;20080;-65
2021/11/23 17:50:39;;;;;;;19.55;14.45;;;;;;;;;;10288309;28;20079;-65
2021/11/23 17:55:42;;;;;;;11.80;9.82;;;;;;;;;;10277641;28;20099;-65
2021/11/23 18:00:42;;;;;;;16.35;11.00;;;;;;;;;;10277222;28;20080;-65
2021/11/23 18:05:40;;;;;;;36.95;20.67;;;;;;;;;;10285225;28;20077;-65
2021/11/23 18:10:39;;;;;;;23.00;16.77;;;;;;;;;;10286435;28;20479;-65
2021/11/23 18:15:38;;;;;;;30.85;27.65;;;;;;;;;;10287948;28;20061;-65
2021/11/23 18:20:38;;;;;;;15.70;11.98;;;;;;;;;;10297508;28;20364;-65
2021/11/23 18:25:37;;;;;;;26.90;20.85;;;;;;;;;;10289382;28;20068;-65
2021/11/23 18:30:35;;;;;;;14.93;11.55;;;;;;;;;;10295504;28;20069;-65
2021/11/23 18:35:35;;;;;;;21.55;14.10;;;;;;;;;;10281657;28;20518;-65
2021/11/23 18:40:36;;;;;;;15.13;13.43;;;;;;;;;;10275059;28;20068;-65
2021/11/23 18:45:35;;;;;;;13.10;11.50;;;;;;;;;;10275294;28;20107;-65
2021/11/23 18:50:35;;;;;;;10.82;8.27;;;;;;;;;;10275438;28;20087;-65
2021/11/23 18:55:33;;;;;;;13.88;9.27;;;;;;;;;;10283288;28;20073;-66
2021/11/23 19:00:33;;;;;;;19.13;15.63;;;;;;;;;;10274754;28;20473;-65
2021/11/23 19:05:31;;;;;;;15.73;12.05;;;;;;;;;;10274709;28;20075;-66
2021/11/23 19:10:31;;;;;;;21.55;15.70;;;;;;;;;;10274391;28;20520;-66
2021/11/23 19:15:30;;;;;;;24.00;17.27;;;;;;;;;;10274573;28;20093;-65
2021/11/23 19:20:29;;;;;;;14.57;12.07;;;;;;;;;;10288231;28;20045;-66
2021/11/23 19:25:27;;;;;;;19.63;13.25;;;;;;;;;;10291533;28;20095;-65
2021/11/23 19:30:27;;;;;;;67.07;31.77;;;;;;;;;;10292802;28;20083;-65
2021/11/23 19:35:26;;;;;;;17.45;13.00;;;;;;;;;;10272297;28;20430;-64
2021/11/23 19:40:25;;;;;;;12.30;10.40;;;;;;;;;;10272723;28;20095;-65
2021/11/23 19:45:25;;;;;;;17.95;13.25;;;;;;;;;;10284631;28;20139;-65
2021/11/23 19:50:26;;;;;;;72.05;43.35;;;;;;;;;;10272786;28;20075;-65
2021/11/23 19:55:25;;;;;;;37.90;24.40;;;;;;;;;;10273155;28;20068;-65
2021/11/23 20:00:26;;;;;;;34.30;23.90;;;;;;;;;;10272851;28;20080;-65
2021/11/23 20:05:26;;;;;;;31.33;19.08;;;;;;;;;;10272394;28;20482;-65
2021/11/23 20:10:25;;;;;;;47.47;32.47;;;;;;;;;;10273184;28;20060;-65
2021/11/23 20:15:23;;;;;;;35.95;25.02;;;;;;;;;;10271774;28;20065;-65
2021/11/23 20:20:22;;;;;;;26.63;19.08;;;;;;;;;;10293381;28;20091;-65
2021/11/23 20:25:22;;;;;;;22.35;15.90;;;;;;;;;;10272093;28;20084;-65
2021/11/23 20:30:22;;;;;;;47.88;30.83;;;;;;;;;;10271850;28;20083;-65
2021/11/23 20:35:21;;;;;;;25.13;16.35;;;;;;;;;;10271797;28;20104;-66
2021/11/23 20:40:20;;;;;;;15.70;11.63;;;;;;;;;;10272145;28;20076;-64
2021/11/23 20:45:20;;;;;;;53.83;34.28;;;;;;;;;;10290686;28;20073;-65
2021/11/23 20:50:18;;;;;;;86.43;49.72;;;;;;;;;;10271779;28;20091;-65
2021/11/23 20:55:16;;;;;;;31.33;20.83;;;;;;;;;;10271490;28;20069;-65
2021/11/23 21:00:16;;;;;;;19.05;13.40;;;;;;;;;;10271671;28;20080;-66
2021/11/23 21:05:15;;;;;;;16.40;12.70;;;;;;;;;;10287252;28;20076;-65
2021/11/23 21:10:14;;;;;;;20.92;13.68;;;;;;;;;;10278945;28;20068;-65
2021/11/23 21:15:13;;;;;;;18.90;11.73;;;;;;;;;;10278726;28;20116;-65
2021/11/23 21:20:11;;;;;;;12.60;8.40;;;;;;;;;;10299634;28;20083;-65
2021/11/23 21:25:11;;;;;;;13.15;9.30;;;;;;;;;;10278888;28;20088;-64
2021/11/23 21:30:10;;;;;;;14.05;9.50;;;;;;;;;;10278196;28;20041;-65
2021/11/23 21:35:09;;;;;;;28.77;18.23;;;;;;;;;;10284640;28;20088;-65
2021/11/23 21:40:10;;;;;;;18.23;11.02;;;;;;;;;;10277739;28;20080;-65
2021/11/23 21:45:10;;;;;;;11.90;8.13;;;;;;;;;;10277907;28;20096;-65
2021/11/23 21:50:08;;;;;;;10.85;7.80;;;;;;;;;;10277159;28;20088;-65
2021/11/23 21:55:07;;;;;;;12.20;8.13;;;;;;;;;;10288634;28;20033;-65
2021/11/23 22:00:05;;;;;;;8.93;7.13;;;;;;;;;;10288033;28;20095;-66
2021/11/23 22:05:09;;;;;;;9.48;7.15;;;;;;;;;;10279968;28;20470;-65
2021/11/23 22:10:09;;;;;;;19.05;11.65;;;;;;;;;;10277423;28;20072;-65
2021/11/23 22:15:08;;;;;;;15.57;10.40;;;;;;;;;;10286502;28;20077;-65
2021/11/23 22:20:07;;;;;;;13.02;10.10;;;;;;;;;;10290616;28;20087;-66
2021/11/23 22:25:07;;;;;;;10.75;8.25;;;;;;;;;;10275771;28;20076;-66
2021/11/23 22:30:06;;;;;;;17.52;8.80;;;;;;;;;;10275855;28;20477;-66
2021/11/23 22:35:09;;;;;;;16.55;10.90;;;;;;;;;;10275628;28;20076;-66
2021/11/23 22:40:09;;;;;;;15.80;10.32;;;;;;;;;;10276282;28;20045;-66
2021/11/23 22:45:09;;;;;;;12.10;8.50;;;;;;;;;;10275170;28;20072;-66
2021/11/23 22:50:08;;;;;;;8.00;6.57;;;;;;;;;;10275580;28;20084;-66
2021/11/23 22:55:07;;;;;;;19.15;10.57;;;;;;;;;;10286114;28;20076;-66
2021/11/23 23:00:12;;;;;;;13.50;8.68;;;;;;;;;;10274780;28;20072;-65
2021/11/23 23:05:11;;;;;;;13.55;7.22;;;;;;;;;;10274360;28;20080;-66
2021/11/23 23:10:09;;;;;;;10.90;6.75;;;;;;;;;;10284354;28;20068;-66
2021/11/23 23:15:07;;;;;;;11.02;7.30;;;;;;;;;;10274362;28;20065;-66
2021/11/23 23:20:08;;;;;;;10.75;6.32;;;;;;;;;;10288009;28;20084;-66
2021/11/23 23:25:07;;;;;;;10.30;7.15;;;;;;;;;;10291072;28;20071;-66
2021/11/23 23:30:09;;;;;;;8.05;6.35;;;;;;;;;;10292077;28;20521;-65
2021/11/23 23:35:09;;;;;;;9.48;6.38;;;;;;;;;;10290008;28;20080;-65
2021/11/23 23:40:08;;;;;;;8.93;5.30;;;;;;;;;;10272960;28;20083;-65
2021/11/23 23:45:06;;;;;;;9.07;6.47;;;;;;;;;;10284023;28;20076;-66
2021/11/23 23:50:05;;;;;;;9.00;6.78;;;;;;;;;;10283809;28;20493;-66
2021/11/23 23:55:05;;;;;;;9.15;5.63;;;;;;;;;;10272466;28;20096;-66
